createdAt,value
2018-11-10T00:01:14.868Z,35.20
2018-11-10T00:03:42.986Z,29.95
2018-11-10T00:06:11.061Z,37.15
2018-11-10T00:08:39.120Z,37.00
2018-11-10T00:11:07.228Z,42.58
2018-11-10T00:13:35.324Z,27.22
2018-11-10T00:16:03.408Z,31.27
2018-11-10T00:18:31.509Z,33.08
2018-11-10T00:20:59.605Z,37.70
2018-11-10T00:23:27.684Z,41.33
2018-11-10T00:25:55.772Z,40.65
2018-11-10T00:28:23.844Z,32.38
2018-11-10T00:30:51.937Z,42.88
2018-11-10T00:33:20.006Z,40.73
2018-11-10T00:35:48.131Z,36.25
2018-11-10T00:38:16.218Z,42.17
2018-11-10T00:40:44.332Z,27.10
2018-11-10T00:43:12.405Z,35.70
2018-11-10T00:45:40.471Z,38.55
2018-11-10T00:48:08.579Z,35.95
2018-11-10T00:50:36.778Z,30.75
2018-11-10T00:53:04.956Z,38.95
2018-11-10T00:55:33.050Z,31.27
2018-11-10T00:58:01.144Z,37.95
2018-11-10T01:00:29.268Z,34.40
2018-11-10T01:02:57.352Z,34.25
2018-11-10T01:05:25.454Z,29.48
2018-11-10T01:07:53.557Z,30.35
2018-11-10T01:10:21.670Z,35.40
2018-11-10T01:12:49.768Z,32.30
2018-11-10T01:15:17.845Z,36.65
2018-11-10T01:17:45.971Z,31.07
2018-11-10T01:20:14.569Z,27.73
2018-11-10T01:22:42.676Z,33.10
2018-11-10T01:25:11.451Z,35.15
2018-11-10T01:27:39.525Z,31.60
2018-11-10T01:30:09.845Z,29.80
2018-11-10T01:32:37.912Z,33.88
2018-11-10T01:35:05.980Z,34.73
2018-11-10T01:37:34.068Z,31.82
2018-11-10T01:40:02.126Z,34.05
2018-11-10T01:42:30.184Z,29.52
2018-11-10T01:44:58.256Z,31.97
2018-11-10T01:47:26.333Z,35.05
2018-11-10T01:49:54.391Z,33.53
2018-11-10T01:52:22.489Z,31.45
2018-11-10T01:54:50.549Z,35.75
2018-11-10T01:57:18.686Z,29.25
2018-11-10T01:59:46.760Z,36.00
2018-11-10T02:02:14.849Z,33.60
2018-11-10T02:04:42.917Z,32.33
2018-11-10T02:07:11.027Z,31.15
2018-11-10T02:09:39.096Z,35.70
2018-11-10T02:12:07.192Z,34.00
2018-11-10T02:14:35.326Z,29.37
2018-11-10T02:17:03.381Z,29.90
2018-11-10T02:19:31.501Z,31.40
2018-11-10T02:21:59.576Z,32.88
2018-11-10T02:24:27.668Z,26.20
2018-11-10T02:26:55.784Z,25.72
2018-11-10T02:29:23.932Z,31.90
2018-11-10T02:31:52.048Z,32.95
2018-11-10T02:34:20.160Z,29.80
2018-11-10T02:36:48.234Z,25.60
2018-11-10T02:39:16.372Z,30.70
2018-11-10T02:41:44.463Z,25.75
2018-11-10T02:44:12.563Z,29.50
2018-11-10T02:46:40.645Z,31.62
2018-11-10T02:49:08.728Z,33.75
2018-11-10T02:51:36.820Z,29.05
2018-11-10T02:54:05.249Z,31.00
2018-11-10T02:56:33.421Z,31.60
2018-11-10T02:59:01.516Z,32.78
2018-11-10T03:01:29.591Z,31.05
2018-11-10T03:03:57.684Z,32.00
2018-11-10T03:06:25.769Z,38.28
2018-11-10T03:08:53.848Z,30.57
2018-11-10T03:11:21.934Z,26.20
2018-11-10T03:13:50.024Z,31.55
2018-11-10T03:16:18.098Z,27.70
2018-11-10T03:18:46.141Z,28.00
2018-11-10T03:21:14.206Z,29.85
2018-11-10T03:23:42.267Z,29.27
2018-11-10T03:26:10.349Z,30.55
2018-11-10T03:28:38.643Z,28.12
2018-11-10T03:31:06.990Z,23.83
2018-11-10T03:33:35.068Z,29.02
2018-11-10T03:36:03.139Z,28.17
2018-11-10T03:38:31.214Z,26.10
2018-11-10T03:40:59.280Z,28.62
2018-11-10T03:43:27.379Z,24.82
2018-11-10T03:45:55.467Z,23.85
2018-11-10T03:48:23.562Z,25.77
2018-11-10T03:50:51.666Z,27.13
2018-11-10T03:53:19.718Z,30.50
2018-11-10T03:55:47.811Z,30.35
2018-11-10T03:58:15.880Z,30.52
2018-11-10T04:00:43.952Z,25.70
2018-11-10T04:03:12.085Z,27.40
2018-11-10T04:05:40.220Z,34.53
2018-11-10T04:08:08.312Z,21.75
2018-11-10T04:10:36.428Z,20.92
2018-11-10T04:13:04.519Z,25.40
2018-11-10T04:15:32.624Z,19.25
2018-11-10T04:18:00.686Z,24.90
2018-11-10T04:20:28.775Z,28.57
2018-11-10T04:22:56.873Z,22.25
2018-11-10T04:25:24.948Z,23.27
2018-11-10T04:27:53.020Z,24.07
2018-11-10T04:30:21.100Z,28.30
2018-11-10T04:32:49.227Z,22.87
2018-11-10T04:35:17.334Z,19.50
2018-11-10T04:37:45.449Z,22.90
2018-11-10T04:40:13.559Z,28.12
2018-11-10T04:42:41.634Z,24.52
2018-11-10T04:45:10.853Z,24.35
2018-11-10T04:47:39.067Z,23.47
2018-11-10T04:50:08.616Z,24.32
2018-11-10T04:52:36.680Z,25.08
2018-11-10T04:55:04.875Z,22.60
2018-11-10T04:57:32.940Z,22.90
2018-11-10T05:00:01.019Z,24.43
2018-11-10T05:02:29.096Z,22.32
2018-11-10T05:04:57.184Z,26.35
2018-11-10T05:07:25.263Z,23.50
2018-11-10T05:09:53.343Z,21.27
2018-11-10T05:12:21.456Z,19.02
2018-11-10T05:14:49.549Z,22.90
2018-11-10T05:17:17.665Z,24.82
2018-11-10T05:19:45.758Z,18.70
2018-11-10T05:22:13.855Z,22.52
2018-11-10T05:24:41.936Z,19.65
2018-11-10T05:27:10.004Z,27.00
2018-11-10T05:29:38.073Z,21.77
2018-11-10T05:32:06.156Z,22.02
2018-11-10T05:34:34.253Z,25.15
2018-11-10T05:37:02.333Z,17.82
2018-11-10T05:39:30.423Z,19.45
2018-11-10T05:41:58.499Z,23.20
2018-11-10T05:44:26.561Z,20.35
2018-11-10T05:46:54.656Z,20.90
2018-11-10T05:49:22.727Z,19.35
2018-11-10T05:51:50.795Z,19.27
2018-11-10T05:54:18.876Z,21.65
2018-11-10T05:56:46.976Z,25.23
2018-11-10T05:59:15.093Z,22.10
2018-11-10T06:01:43.199Z,21.85
2018-11-10T06:04:11.324Z,23.77
2018-11-10T06:06:39.445Z,20.30
2018-11-10T06:09:08.977Z,14.55
2018-11-10T06:11:36.992Z,20.92
2018-11-10T06:14:05.106Z,22.42
2018-11-10T06:16:33.252Z,28.12
2018-11-10T06:19:01.421Z,16.90
2018-11-10T06:21:29.508Z,17.10
2018-11-10T06:23:57.655Z,20.05
2018-11-10T06:26:25.716Z,20.45
2018-11-10T06:28:53.832Z,22.40
2018-11-10T06:31:21.908Z,21.15
2018-11-10T06:33:50.021Z,21.65
2018-11-10T06:36:18.104Z,24.27
2018-11-10T06:38:46.176Z,21.93
2018-11-10T06:41:14.274Z,23.02
2018-11-10T06:43:42.373Z,27.73
2018-11-10T06:46:10.463Z,19.60
2018-11-10T06:48:38.788Z,19.87
2018-11-10T06:51:06.876Z,17.42
2018-11-10T06:53:34.947Z,21.65
2018-11-10T06:56:03.034Z,25.12
2018-11-10T06:58:31.134Z,21.95
2018-11-10T07:00:59.186Z,20.85
2018-11-10T07:03:27.341Z,19.62
2018-11-10T07:05:55.431Z,25.30
2018-11-10T07:08:23.544Z,20.48
2018-11-10T07:10:51.696Z,18.95
2018-11-10T07:13:19.800Z,22.93
2018-11-10T07:15:47.896Z,21.65
2018-11-10T07:18:16.076Z,20.15
2018-11-10T07:20:44.187Z,18.80
2018-11-10T07:23:12.329Z,21.50
2018-11-10T07:25:40.427Z,18.80
2018-11-10T07:28:08.532Z,25.75
2018-11-10T07:30:36.605Z,22.15
2018-11-10T07:33:04.800Z,17.12
2018-11-10T07:35:32.883Z,19.70
2018-11-10T07:38:01.877Z,21.17
2018-11-10T07:40:30.075Z,16.70
2018-11-10T07:42:58.211Z,21.82
2018-11-10T07:45:26.252Z,22.52
2018-11-10T07:47:54.372Z,20.37
2018-11-10T07:50:22.468Z,23.05
2018-11-10T07:52:50.837Z,19.75
2018-11-10T07:55:18.937Z,22.87
2018-11-10T07:57:47.037Z,27.30
2018-11-10T08:00:16.476Z,26.73
2018-11-10T08:02:44.554Z,24.75
2018-11-10T08:05:13.207Z,18.98
2018-11-10T08:07:42.237Z,18.98
2018-11-10T08:10:10.868Z,23.45
2018-11-10T08:12:38.944Z,13.65
2018-11-10T08:15:10.539Z,14.85
2018-11-10T08:17:39.112Z,19.20
2018-11-10T08:20:07.469Z,13.15
2018-11-10T08:22:35.594Z,19.30
2018-11-10T08:25:03.758Z,21.85
2018-11-10T08:27:31.842Z,19.87
2018-11-10T08:29:59.949Z,16.70
2018-11-10T08:32:28.061Z,15.45
2018-11-10T08:34:56.127Z,20.95
2018-11-10T08:37:24.233Z,19.42
2018-11-10T08:39:52.348Z,15.38
2018-11-10T08:42:20.681Z,18.65
2018-11-10T08:44:48.755Z,18.40
2018-11-10T08:47:16.944Z,15.58
2018-11-10T08:49:45.001Z,20.77
2018-11-10T08:52:13.105Z,17.23
2018-11-10T08:54:41.154Z,14.60
2018-11-10T08:57:09.257Z,17.17
2018-11-10T08:59:37.396Z,15.20
2018-11-10T09:02:07.829Z,16.02
2018-11-10T09:04:35.920Z,14.45
2018-11-10T09:07:03.999Z,16.25
2018-11-10T09:09:32.116Z,20.68
2018-11-10T09:12:00.209Z,13.70
2018-11-10T09:14:28.340Z,13.55
2018-11-10T09:16:56.429Z,12.18
2018-11-10T09:19:24.528Z,17.48
2018-11-10T09:21:52.599Z,20.12
2018-11-10T09:24:20.668Z,16.52
2018-11-10T09:26:48.762Z,18.42
2018-11-10T09:29:16.889Z,13.43
2018-11-10T09:31:44.963Z,11.50
2018-11-10T09:34:13.031Z,19.90
2018-11-10T09:36:41.153Z,11.73
2018-11-10T09:39:09.236Z,15.58
2018-11-10T09:41:37.764Z,15.43
2018-11-10T09:44:05.857Z,15.00
2018-11-10T09:46:33.939Z,15.83
2018-11-10T09:49:02.016Z,13.35
2018-11-10T09:51:30.100Z,18.92
2018-11-10T09:53:58.168Z,18.17
2018-11-10T09:56:26.260Z,17.10
2018-11-10T09:58:54.372Z,16.23
2018-11-10T10:01:22.727Z,11.73
2018-11-10T10:03:50.672Z,15.05
2018-11-10T10:06:18.780Z,9.20
2018-11-10T10:08:46.945Z,13.45
2018-11-10T10:11:14.956Z,10.80
2018-11-10T10:13:43.080Z,15.70
2018-11-10T10:16:11.246Z,13.38
2018-11-10T10:18:39.285Z,12.55
2018-11-10T10:21:07.380Z,13.90
2018-11-10T10:23:35.452Z,10.38
2018-11-10T10:26:03.536Z,13.22
2018-11-10T10:28:31.688Z,14.15
2018-11-10T10:30:59.689Z,11.43
2018-11-10T10:33:27.769Z,13.60
2018-11-10T10:35:55.837Z,15.10
2018-11-10T10:38:23.917Z,15.05
2018-11-10T10:40:52.260Z,10.68
2018-11-10T10:43:20.356Z,10.50
2018-11-10T10:45:48.420Z,14.73
2018-11-10T10:48:16.508Z,14.05
2018-11-10T10:50:44.596Z,10.63
2018-11-10T10:53:12.672Z,10.35
2018-11-10T10:55:40.764Z,8.23
2018-11-10T10:58:08.867Z,9.43
2018-11-10T11:00:42.429Z,11.00
2018-11-10T11:03:16.090Z,7.90
2018-11-10T11:05:48.277Z,10.85
2018-11-10T11:08:16.362Z,9.60
2018-11-10T11:10:44.476Z,9.43
2018-11-10T11:13:12.557Z,7.08
2018-11-10T11:15:40.774Z,9.75
2018-11-10T11:18:08.731Z,8.20
2018-11-10T11:20:36.846Z,8.40
2018-11-10T11:23:05.053Z,10.25
2018-11-10T11:25:33.137Z,9.95
2018-11-10T11:28:01.258Z,8.90
2018-11-10T11:30:29.389Z,6.67
2018-11-10T11:32:57.461Z,8.53
2018-11-10T11:35:25.657Z,8.50
2018-11-10T11:37:53.675Z,9.98
2018-11-10T11:40:21.776Z,9.13
2018-11-10T11:42:49.849Z,11.40
2018-11-10T11:45:17.943Z,8.78
2018-11-10T11:47:46.020Z,9.38
2018-11-10T11:50:15.228Z,5.97
2018-11-10T11:52:44.009Z,8.50
2018-11-10T11:55:12.700Z,8.28
2018-11-10T11:57:40.932Z,8.98
2018-11-10T12:00:12.031Z,6.35
2018-11-10T12:02:40.608Z,9.20
2018-11-10T12:05:09.888Z,5.67
2018-11-10T12:07:37.988Z,7.40
2018-11-10T12:10:06.976Z,8.75
2018-11-10T12:12:35.061Z,7.97
2018-11-10T12:15:03.187Z,7.35
2018-11-10T12:17:31.264Z,7.87
2018-11-10T12:19:59.333Z,8.30
2018-11-10T12:22:27.401Z,7.50
2018-11-10T12:24:55.488Z,5.95
2018-11-10T12:27:23.566Z,10.53
2018-11-10T12:29:51.641Z,8.40
2018-11-10T12:32:19.713Z,8.23
2018-11-10T12:34:47.796Z,7.15
2018-11-10T12:37:15.869Z,10.10
2018-11-10T12:39:44.057Z,5.25
2018-11-10T12:42:12.212Z,8.05
2018-11-10T12:44:40.276Z,11.68
2018-11-10T12:47:08.405Z,10.93
2018-11-10T12:49:36.483Z,9.95
2018-11-10T12:52:04.880Z,9.70
2018-11-10T12:54:32.947Z,7.35
2018-11-10T12:57:01.028Z,9.68
2018-11-10T12:59:29.167Z,11.38
2018-11-10T13:01:57.272Z,8.13
2018-11-10T13:04:25.373Z,10.05
2018-11-10T13:06:53.466Z,8.55
2018-11-10T13:09:21.521Z,8.30
2018-11-10T13:11:49.663Z,5.87
2018-11-10T13:14:17.723Z,8.20
2018-11-10T13:16:45.767Z,6.15
2018-11-10T13:19:14.031Z,9.85
2018-11-10T13:21:42.127Z,5.62
2018-11-10T13:24:10.315Z,5.42
2018-11-10T13:26:38.404Z,8.90
2018-11-10T13:29:06.733Z,7.37
2018-11-10T13:31:34.828Z,6.40
2018-11-10T13:34:02.896Z,11.25
2018-11-10T13:36:31.013Z,5.85
2018-11-10T13:38:59.142Z,8.85
2018-11-10T13:41:27.270Z,6.50
2018-11-10T13:43:55.426Z,8.00
2018-11-10T13:46:23.496Z,7.83
2018-11-10T13:48:51.928Z,7.58
2018-11-10T13:51:20.035Z,8.38
2018-11-10T13:53:48.112Z,8.50
2018-11-10T13:56:16.180Z,5.53
2018-11-10T13:58:44.317Z,9.70
2018-11-10T14:01:12.477Z,11.08
2018-11-10T14:03:41.525Z,6.25
2018-11-10T14:06:09.681Z,8.70
2018-11-10T14:08:37.785Z,11.18
2018-11-10T14:11:05.848Z,11.10
2018-11-10T14:13:33.968Z,10.53
2018-11-10T14:16:02.043Z,5.97
2018-11-10T14:18:30.149Z,7.72
2018-11-10T14:20:58.229Z,8.35
2018-11-10T14:23:26.297Z,7.83
2018-11-10T14:25:54.387Z,10.32
2018-11-10T14:28:22.480Z,8.48
2018-11-10T14:30:50.717Z,9.28
2018-11-10T14:33:18.884Z,9.33
2018-11-10T14:35:47.043Z,8.08
2018-11-10T14:38:15.151Z,7.10
2018-11-10T14:40:43.314Z,6.85
2018-11-10T14:43:11.451Z,10.30
2018-11-10T14:45:39.544Z,8.65
2018-11-10T14:48:07.621Z,8.68
2018-11-10T14:50:35.757Z,9.58
2018-11-10T14:53:04.595Z,10.50
2018-11-10T14:55:32.552Z,8.30
2018-11-10T14:58:00.648Z,7.70
2018-11-10T15:00:29.476Z,8.55
2018-11-10T15:02:57.568Z,7.62
2018-11-10T15:05:25.791Z,12.05
2018-11-10T15:07:55.596Z,8.48
2018-11-10T15:10:23.696Z,8.63
2018-11-10T15:12:51.807Z,8.65
2018-11-10T15:15:20.162Z,9.98
2018-11-10T15:17:48.512Z,9.43
2018-11-10T15:20:17.559Z,9.93
2018-11-10T15:22:45.633Z,8.85
2018-11-10T15:25:15.040Z,8.80
2018-11-10T15:27:43.154Z,8.00
2018-11-10T15:30:13.926Z,11.60
2018-11-10T15:32:43.032Z,8.68
2018-11-10T15:35:13.005Z,12.80
2018-11-10T15:37:41.898Z,7.22
2018-11-10T15:40:11.124Z,6.42
2018-11-10T15:42:39.214Z,6.67
2018-11-10T15:45:08.303Z,10.18
2018-11-10T15:47:36.376Z,8.40
2018-11-10T15:50:05.361Z,6.25
2018-11-10T15:52:33.459Z,9.03
2018-11-10T15:55:01.552Z,7.80
2018-11-10T15:57:29.673Z,8.48
2018-11-10T15:59:57.766Z,9.30
2018-11-10T16:02:25.856Z,5.83
2018-11-10T16:04:53.961Z,7.33
2018-11-10T16:07:22.060Z,7.75
2018-11-10T16:09:50.212Z,13.08
2018-11-10T16:12:18.300Z,10.58
2018-11-10T16:14:46.403Z,8.75
2018-11-10T16:17:14.572Z,9.83
2018-11-10T16:19:42.655Z,12.37
2018-11-10T16:22:10.716Z,12.40
2018-11-10T16:24:38.797Z,15.80
2018-11-10T16:27:06.863Z,10.98
2018-11-10T16:29:34.962Z,12.85
2018-11-10T16:32:03.063Z,17.05
2018-11-10T16:34:31.204Z,12.90
2018-11-10T16:36:59.290Z,8.70
2018-11-10T16:39:27.422Z,11.18
2018-11-10T16:41:55.575Z,15.32
2018-11-10T16:44:23.656Z,10.18
2018-11-10T16:46:51.884Z,14.93
2018-11-10T16:49:19.955Z,14.55
2018-11-10T16:51:48.041Z,13.80
2018-11-10T16:54:16.116Z,15.60
2018-11-10T16:56:44.205Z,16.52
2018-11-10T16:59:12.321Z,10.18
2018-11-10T17:01:40.405Z,11.68
2018-11-10T17:04:08.945Z,13.53
2018-11-10T17:06:37.088Z,11.68
2018-11-10T17:09:07.771Z,13.98
2018-11-10T17:11:35.901Z,17.05
2018-11-10T17:14:05.176Z,9.20
2018-11-10T17:16:33.290Z,11.93
2018-11-10T17:19:01.362Z,13.95
2018-11-10T17:21:29.531Z,12.23
2018-11-10T17:23:57.605Z,10.48
2018-11-10T17:26:25.732Z,10.88
2018-11-10T17:28:53.868Z,11.95
2018-11-10T17:31:21.979Z,13.25
2018-11-10T17:33:50.064Z,13.28
2018-11-10T17:36:18.140Z,12.45
2018-11-10T17:38:46.274Z,15.70
2018-11-10T17:41:14.317Z,14.15
2018-11-10T17:43:42.393Z,16.10
2018-11-10T17:46:10.476Z,12.40
2018-11-10T17:48:38.536Z,14.75
2018-11-10T17:51:06.715Z,20.08
2018-11-10T17:53:34.885Z,15.75
2018-11-10T17:56:02.989Z,13.40
2018-11-10T17:58:31.060Z,14.93
2018-11-10T18:00:59.164Z,17.37
2018-11-10T18:03:27.345Z,11.80
2018-11-10T18:05:55.472Z,11.43
2018-11-10T18:08:23.920Z,15.43
2018-11-10T18:10:52.009Z,13.43
2018-11-10T18:13:20.431Z,16.48
2018-11-10T18:15:51.985Z,15.95
2018-11-10T18:18:20.400Z,15.28
2018-11-10T18:20:48.538Z,10.82
2018-11-10T18:23:16.659Z,12.30
2018-11-10T18:25:44.740Z,15.85
2018-11-10T18:28:12.888Z,15.60
2018-11-10T18:30:40.968Z,17.40
2018-11-10T18:33:09.068Z,18.20
2018-11-10T18:35:37.152Z,12.25
2018-11-10T18:38:05.301Z,16.15
2018-11-10T18:40:33.405Z,13.72
2018-11-10T18:43:01.500Z,17.12
2018-11-10T18:45:29.616Z,13.40
2018-11-10T18:47:57.716Z,16.30
2018-11-10T18:50:25.805Z,16.87
2018-11-10T18:52:53.935Z,18.87
2018-11-10T18:55:22.017Z,15.72
2018-11-10T18:57:50.127Z,15.38
2018-11-10T19:00:18.268Z,21.82
2018-11-10T19:02:46.375Z,18.90
2018-11-10T19:05:15.780Z,17.10
2018-11-10T19:07:43.883Z,14.50
2018-11-10T19:10:13.385Z,21.73
2018-11-10T19:12:41.942Z,15.83
2018-11-10T19:15:13.299Z,17.92
2018-11-10T19:17:41.466Z,18.48
2018-11-10T19:20:10.142Z,17.62
2018-11-10T19:22:38.287Z,17.60
2018-11-10T19:25:07.406Z,12.37
2018-11-10T19:27:35.505Z,18.40
2018-11-10T19:30:03.627Z,12.85
2018-11-10T19:32:31.727Z,15.58
2018-11-10T19:34:59.825Z,15.78
2018-11-10T19:37:27.940Z,14.98
2018-11-10T19:39:56.065Z,13.15
2018-11-10T19:42:24.135Z,13.75
2018-11-10T19:44:52.212Z,20.32
2018-11-10T19:47:20.289Z,18.35
2018-11-10T19:49:48.733Z,15.32
2018-11-10T19:52:17.165Z,13.80
2018-11-10T19:54:45.174Z,17.98
2018-11-10T19:57:13.240Z,13.25
2018-11-10T19:59:41.325Z,15.68
2018-11-10T20:02:09.455Z,16.05
2018-11-10T20:04:37.529Z,14.43
2018-11-10T20:07:05.616Z,13.93
2018-11-10T20:09:33.711Z,11.15
2018-11-10T20:12:01.773Z,10.88
2018-11-10T20:14:29.845Z,16.37
2018-11-10T20:16:57.940Z,11.75
2018-11-10T20:19:26.085Z,13.55
2018-11-10T20:21:54.112Z,8.65
2018-11-10T20:24:22.201Z,14.70
2018-11-10T20:26:50.285Z,11.18
2018-11-10T20:29:18.387Z,14.30
2018-11-10T20:31:46.868Z,9.65
2018-11-10T20:34:16.639Z,11.95
2018-11-10T20:36:44.748Z,13.00
2018-11-10T20:39:12.813Z,9.63
2018-11-10T20:41:40.867Z,14.25
2018-11-10T20:44:09.359Z,13.60
2018-11-10T20:46:38.273Z,14.53
2018-11-10T20:49:06.359Z,11.50
2018-11-10T20:51:34.456Z,9.20
2018-11-10T20:54:02.962Z,11.25
2018-11-10T20:56:31.024Z,9.98
2018-11-10T20:58:59.088Z,11.10
2018-11-10T21:01:27.211Z,8.93
2018-11-10T21:03:55.344Z,10.48
2018-11-10T21:06:23.476Z,11.90
2018-11-10T21:08:51.648Z,9.60
2018-11-10T21:11:19.752Z,8.90
2018-11-10T21:13:47.843Z,12.05
2018-11-10T21:16:15.920Z,8.58
2018-11-10T21:18:44.000Z,8.90
2018-11-10T21:21:12.100Z,8.80
2018-11-10T21:23:40.191Z,12.10
2018-11-10T21:26:08.316Z,10.85
2018-11-10T21:28:36.460Z,8.23
2018-11-10T21:31:04.565Z,9.15
2018-11-10T21:33:32.697Z,11.70
2018-11-10T21:36:00.756Z,10.95
2018-11-10T21:38:28.848Z,10.25
2018-11-10T21:40:56.952Z,11.38
2018-11-10T21:43:25.084Z,6.83
2018-11-10T21:45:53.124Z,6.92
2018-11-10T21:48:21.284Z,12.30
2018-11-10T21:50:49.375Z,12.25
2018-11-10T21:53:17.463Z,6.72
2018-11-10T21:55:45.549Z,9.03
2018-11-10T21:58:13.686Z,6.92
2018-11-10T22:00:41.753Z,10.25
2018-11-10T22:03:09.872Z,8.48
2018-11-10T22:05:37.963Z,9.78
2018-11-10T22:08:06.043Z,11.05
2018-11-10T22:10:34.116Z,8.60
2018-11-10T22:13:02.205Z,11.25
2018-11-10T22:15:30.280Z,10.70
2018-11-10T22:17:58.380Z,11.48
2018-11-10T22:20:26.445Z,8.50
2018-11-10T22:22:54.619Z,8.30
2018-11-10T22:25:22.673Z,7.75
2018-11-10T22:27:52.289Z,9.20
2018-11-10T22:30:21.440Z,8.53
2018-11-10T22:32:50.028Z,8.13
2018-11-10T22:35:18.165Z,8.50
2018-11-10T22:37:46.249Z,9.13
2018-11-10T22:40:15.631Z,5.78
2018-11-10T22:42:44.069Z,7.67
2018-11-10T22:45:14.384Z,9.68
2018-11-10T22:47:42.771Z,7.08
2018-11-10T22:50:17.440Z,7.60
2018-11-10T22:52:45.609Z,7.20
2018-11-10T22:55:13.692Z,10.43
2018-11-10T22:57:41.933Z,6.20
2018-11-10T23:00:27.294Z,8.80
2018-11-10T23:02:56.683Z,8.35
2018-11-10T23:05:25.191Z,6.83
2018-11-10T23:07:53.256Z,5.83
2018-11-10T23:10:21.635Z,8.48
2018-11-10T23:12:50.669Z,9.73
2018-11-10T23:15:19.575Z,10.53
2018-11-10T23:17:47.640Z,6.83
2018-11-10T23:20:17.083Z,10.08
2018-11-10T23:22:45.216Z,6.35
2018-11-10T23:25:15.562Z,9.75
2018-11-10T23:27:43.640Z,7.45
2018-11-10T23:30:14.300Z,10.32
2018-11-10T23:32:42.434Z,10.35
2018-11-10T23:35:11.318Z,8.38
2018-11-10T23:37:39.651Z,7.53
2018-11-10T23:40:09.616Z,8.40
2018-11-10T23:42:37.764Z,9.53
2018-11-10T23:45:06.691Z,10.43
2018-11-10T23:47:36.548Z,12.98
2018-11-10T23:50:04.965Z,8.13
2018-11-10T23:52:33.037Z,10.43
2018-11-10T23:55:01.117Z,7.53
2018-11-10T23:57:29.240Z,10.78
2018-11-10T23:59:57.308Z,8.40
